createdAt,value
2023-05-21T00:00:02.456Z,12.9
2023-05-21T00:15:02.906Z,12.7
2023-05-21T00:30:02.395Z,12.6
2023-05-21T00:45:02.795Z,12.4
2023-05-21T01:00:03.300Z,12.3
2023-05-21T01:15:02.672Z,12.2
2023-05-21T01:30:03.306Z,12.0
2023-05-21T01:45:02.542Z,12.0
2023-05-21T02:00:02.961Z,12.0
2023-05-21T02:15:02.382Z,11.9
2023-05-21T02:30:02.842Z,11.8
2023-05-21T02:45:02.324Z,11.7
2023-05-21T03:00:02.708Z,11.7
2023-05-21T03:15:03.313Z,11.5
2023-05-21T03:30:03.317Z,11.5
2023-05-21T03:45:03.066Z,11.4
2023-05-21T04:00:02.480Z,11.5
2023-05-21T04:15:02.926Z,11.6
2023-05-21T04:30:02.377Z,11.8
2023-05-21T04:45:02.821Z,11.8
2023-05-21T05:00:02.345Z,11.9
2023-05-21T05:15:02.677Z,12.6
2023-05-21T05:30:02.336Z,13.4
2023-05-21T05:45:02.569Z,13.7
2023-05-21T06:00:02.994Z,13.8
2023-05-21T06:15:02.439Z,13.9
2023-05-21T06:30:02.887Z,14.0
2023-05-21T06:45:02.364Z,14.3
2023-05-21T07:00:02.776Z,14.4
2023-05-21T07:15:03.363Z,14.8
2023-05-21T07:30:02.640Z,14.9
2023-05-21T07:45:03.101Z,15.3
2023-05-21T08:00:02.519Z,15.8
2023-05-21T08:15:02.951Z,16.4
2023-05-21T08:30:02.395Z,16.9
2023-05-21T08:45:02.850Z,17.4
2023-05-21T09:00:02.376Z,18.3
2023-05-21T09:15:02.717Z,19.1
2023-05-21T09:30:03.343Z,19.9
2023-05-21T09:45:02.585Z,20.1
2023-05-21T10:00:03.028Z,20.2
2023-05-21T10:15:02.462Z,19.5
2023-05-21T10:30:02.908Z,19.6
2023-05-21T10:45:02.402Z,19.8
2023-05-21T11:00:02.780Z,20.4
2023-05-21T11:15:03.415Z,20.7
2023-05-21T11:30:02.678Z,21.1
2023-05-21T11:45:03.113Z,21.9
2023-05-21T12:00:02.608Z,22.5
2023-05-21T12:15:02.995Z,23.6
2023-05-21T12:30:02.405Z,23.9
2023-05-21T12:45:02.842Z,24.5
2023-05-21T13:00:02.418Z,24.9
2023-05-21T13:15:02.721Z,25.0
2023-05-21T13:30:02.161Z,24.9
2023-05-21T13:45:02.607Z,24.9
2023-05-21T14:00:03.024Z,24.9
2023-05-21T14:15:02.484Z,24.7
2023-05-21T14:30:02.917Z,25.1
2023-05-21T14:45:17.490Z,25.4
2023-05-21T15:00:02.775Z,25.7
2023-05-21T15:15:03.459Z,25.7
2023-05-21T15:30:02.746Z,25.0
2023-05-21T15:45:03.083Z,24.6
2023-05-21T16:00:02.544Z,24.3
2023-05-21T16:15:02.953Z,24.2
2023-05-21T16:30:02.453Z,24.1
2023-05-21T16:45:02.827Z,24.7
2023-05-21T17:00:02.458Z,25.4
2023-05-21T17:15:02.700Z,25.1
2023-05-21T17:30:03.183Z,24.2
2023-05-21T17:45:02.579Z,23.7
2023-05-21T18:00:03.007Z,23.3
2023-05-21T18:15:02.476Z,23.0
2023-05-21T18:30:02.903Z,22.6
2023-05-21T18:45:02.469Z,22.2
2023-05-21T19:00:02.801Z,21.5
2023-05-21T19:15:03.198Z,20.9
2023-05-21T19:30:02.646Z,20.3
2023-05-21T19:45:03.140Z,19.8
2023-05-21T20:00:02.559Z,19.9
2023-05-21T20:15:02.995Z,19.7
2023-05-21T20:30:02.506Z,19.8
2023-05-21T20:45:02.842Z,19.5
2023-05-21T21:00:02.489Z,19.3
2023-05-21T21:15:02.728Z,19.2
2023-05-21T21:30:02.206Z,19.8
2023-05-21T21:45:02.631Z,19.8
2023-05-21T22:00:03.071Z,19.5
2023-05-21T22:15:03.501Z,18.9
2023-05-21T22:30:02.944Z,18.2
2023-05-21T22:45:02.499Z,17.8
2023-05-21T23:00:02.814Z,17.5
2023-05-21T23:15:03.265Z,17.3
2023-05-21T23:30:02.707Z,17.2
2023-05-21T23:45:03.181Z,17.2
